createdAt,value
2019-01-12T00:02:11.945Z,6.05
2019-01-12T00:05:15.243Z,9.83
2019-01-12T00:08:18.027Z,9.73
2019-01-12T00:11:21.834Z,6.50
2019-01-12T00:14:25.386Z,8.65
2019-01-12T00:17:28.687Z,5.95
2019-01-12T00:20:35.052Z,5.72
2019-01-12T00:23:39.114Z,10.72
2019-01-12T00:26:42.671Z,8.55
2019-01-12T00:29:46.742Z,6.45
2019-01-12T00:32:50.025Z,7.10
2019-01-12T00:35:53.831Z,6.20
2019-01-12T00:38:57.139Z,8.78
2019-01-12T00:42:01.702Z,7.10
2019-01-12T00:45:05.004Z,8.53
2019-01-12T00:48:07.787Z,10.10
2019-01-12T00:51:11.084Z,6.20
2019-01-12T00:54:15.659Z,6.53
2019-01-12T00:57:18.695Z,9.13
2019-01-12T01:00:21.989Z,5.20
2019-01-12T01:03:25.032Z,5.47
2019-01-12T01:06:28.342Z,10.63
2019-01-12T01:09:27.369Z,9.00
2019-01-12T01:12:30.830Z,7.72
2019-01-12T01:15:35.402Z,4.42
2019-01-12T01:18:38.447Z,10.23
2019-01-12T01:21:41.483Z,5.70
2019-01-12T01:24:47.597Z,8.78
2019-01-12T01:27:50.376Z,6.95
2019-01-12T01:30:53.419Z,5.92
2019-01-12T01:33:56.714Z,10.05
2019-01-12T01:37:02.569Z,10.75
2019-01-12T01:40:05.101Z,8.00
2019-01-12T01:43:08.650Z,10.35
2019-01-12T01:46:11.687Z,9.73
2019-01-12T01:49:14.727Z,5.53
2019-01-12T01:52:17.513Z,11.33
2019-01-12T01:55:20.551Z,7.33
2019-01-12T01:58:23.339Z,10.88
2019-01-12T02:01:26.377Z,8.53
2019-01-12T02:04:29.929Z,8.13
2019-01-12T02:07:32.967Z,5.97
2019-01-12T02:10:36.264Z,6.53
2019-01-12T02:13:40.075Z,12.68
2019-01-12T02:16:43.112Z,7.78
2019-01-12T02:19:45.897Z,7.05
2019-01-12T02:22:49.447Z,10.00
2019-01-12T02:25:55.305Z,10.35
2019-01-12T02:28:58.349Z,12.95
2019-01-12T02:32:01.643Z,12.00
2019-01-12T02:35:04.425Z,8.65
2019-01-12T02:38:07.473Z,6.95
2019-01-12T02:41:10.510Z,8.83
2019-01-12T02:44:13.803Z,12.58
2019-01-12T02:47:17.869Z,7.05
2019-01-12T02:50:21.164Z,10.48
2019-01-12T02:53:24.718Z,10.40
2019-01-12T02:56:29.033Z,6.78
2019-01-12T02:59:31.819Z,12.82
2019-01-12T03:02:34.865Z,10.82
2019-01-12T03:05:37.641Z,8.30
2019-01-12T03:08:41.961Z,14.23
2019-01-12T03:11:41.420Z,10.75
2019-01-12T03:14:44.202Z,7.20
2019-01-12T03:17:46.986Z,7.20
2019-01-12T03:20:50.039Z,6.50
2019-01-12T03:23:53.068Z,10.18
2019-01-12T03:26:55.849Z,6.80
2019-01-12T03:29:58.634Z,6.92
2019-01-12T03:33:01.934Z,6.30
2019-01-12T03:36:04.716Z,8.38
2019-01-12T03:39:07.756Z,13.00
2019-01-12T03:42:11.051Z,12.35
2019-01-12T03:45:14.098Z,6.58
2019-01-12T03:48:16.884Z,11.18
2019-01-12T03:51:19.912Z,7.42
2019-01-12T03:54:22.955Z,11.53
2019-01-12T03:57:25.995Z,7.47
2019-01-12T04:00:25.466Z,8.18
2019-01-12T04:03:28.487Z,9.38
2019-01-12T04:06:31.286Z,13.48
2019-01-12T04:09:35.341Z,11.22
2019-01-12T04:12:38.889Z,7.22
2019-01-12T04:15:41.673Z,8.23
2019-01-12T04:18:44.461Z,7.95
2019-01-12T04:21:47.501Z,8.45
2019-01-12T04:24:51.817Z,10.43
2019-01-12T04:27:56.657Z,6.12
2019-01-12T04:31:00.976Z,7.33
2019-01-12T04:34:04.043Z,11.80
2019-01-12T04:37:08.706Z,8.73
2019-01-12T04:40:14.960Z,9.90
2019-01-12T04:43:26.452Z,9.95
2019-01-12T04:49:44.816Z,10.70
2019-01-12T04:52:55.275Z,12.03
2019-01-12T04:55:58.825Z,8.68
2019-01-12T04:59:10.354Z,11.53
2019-01-12T05:02:13.353Z,11.15
2019-01-12T05:05:18.450Z,7.80
2019-01-12T05:08:22.761Z,10.85
2019-01-12T05:11:26.056Z,8.10
2019-01-12T05:14:32.188Z,9.58
2019-01-12T05:17:37.834Z,7.90
2019-01-12T05:20:45.690Z,13.40
2019-01-12T05:23:49.741Z,8.58
2019-01-12T05:26:53.554Z,9.85
2019-01-12T05:29:57.101Z,8.08
2019-01-12T05:32:59.880Z,9.53
2019-01-12T05:36:03.175Z,9.08
2019-01-12T05:39:08.674Z,8.03
2019-01-12T05:42:24.388Z,8.65
2019-01-12T05:45:29.729Z,9.20
2019-01-12T05:48:36.328Z,7.92
2019-01-12T05:51:39.367Z,8.30
2019-01-12T05:54:42.410Z,7.08
2019-01-12T05:57:45.197Z,9.40
2019-01-12T06:00:47.979Z,10.80
2019-01-12T06:03:51.027Z,8.65
2019-01-12T06:06:54.055Z,9.33
2019-01-12T06:09:56.840Z,8.15
2019-01-12T06:12:59.879Z,7.92
2019-01-12T06:16:03.436Z,8.75
2019-01-12T06:19:06.476Z,9.15
2019-01-12T06:22:09.260Z,8.55
2019-01-12T06:25:12.296Z,7.72
2019-01-12T06:28:16.107Z,7.42
2019-01-12T06:31:19.151Z,7.03
2019-01-12T06:34:22.953Z,7.58
2019-01-12T06:37:25.999Z,7.95
2019-01-12T06:40:29.544Z,7.75
2019-01-12T06:43:32.585Z,9.08
2019-01-12T06:46:35.624Z,8.33
2019-01-12T06:49:38.920Z,6.03
2019-01-12T06:52:42.480Z,6.97
2019-01-12T06:55:39.623Z,7.20
2019-01-12T06:58:42.407Z,5.92
2019-01-12T07:01:45.448Z,6.22
2019-01-12T07:04:48.233Z,10.20
2019-01-12T07:07:52.552Z,6.72
2019-01-12T07:10:55.592Z,6.37
2019-01-12T07:13:58.376Z,8.95
2019-01-12T07:17:01.417Z,6.65
2019-01-12T07:20:03.943Z,6.47
2019-01-12T07:23:06.988Z,5.92
2019-01-12T07:26:17.397Z,6.25
2019-01-12T07:29:14.356Z,6.90
2019-01-12T07:32:17.652Z,5.47
2019-01-12T07:35:20.699Z,6.17
2019-01-12T07:38:24.232Z,5.12
2019-01-12T07:41:27.273Z,6.12
2019-01-12T07:44:31.592Z,4.92
2019-01-12T07:47:34.634Z,5.58
2019-01-12T07:50:38.697Z,5.92
2019-01-12T07:53:42.763Z,5.05
2019-01-12T07:56:45.550Z,7.50
2019-01-12T07:59:48.330Z,4.87
2019-01-12T08:02:51.907Z,5.87
2019-01-12T08:05:54.665Z,6.25
2019-01-12T08:08:57.451Z,7.20
2019-01-12T08:12:01.258Z,5.17
2019-01-12T08:15:05.830Z,5.70
2019-01-12T08:18:09.946Z,6.85
2019-01-12T08:21:12.937Z,5.45
2019-01-12T08:24:15.721Z,3.98
2019-01-12T08:27:18.762Z,4.20
2019-01-12T08:30:22.311Z,3.92
2019-01-12T08:33:21.704Z,5.45
2019-01-12T08:36:25.067Z,5.30
2019-01-12T08:39:28.102Z,5.10
2019-01-12T08:42:30.893Z,4.95
2019-01-12T08:45:33.929Z,4.75
2019-01-12T08:48:33.415Z,5.40
2019-01-12T08:51:36.202Z,4.75
2019-01-12T08:54:39.464Z,5.83
2019-01-12T08:57:44.041Z,5.08
2019-01-12T09:00:47.083Z,5.70
2019-01-12T09:03:50.126Z,6.78
2019-01-12T09:06:53.685Z,3.85
2019-01-12T09:09:57.992Z,4.30
2019-01-12T09:13:01.288Z,3.58
2019-01-12T09:16:04.335Z,7.17
2019-01-12T09:19:08.139Z,5.37
2019-01-12T09:22:24.875Z,4.53
2019-01-12T09:25:31.406Z,4.15
2019-01-12T09:28:37.251Z,4.50
2019-01-12T09:31:42.067Z,4.85
2019-01-12T09:34:49.238Z,3.75
2019-01-12T09:37:53.772Z,4.20
2019-01-12T09:40:56.811Z,4.85
2019-01-12T09:43:59.593Z,4.45
2019-01-12T09:47:02.396Z,3.58
2019-01-12T09:50:05.927Z,4.08
2019-01-12T09:53:08.716Z,4.30
2019-01-12T09:56:11.496Z,5.42
2019-01-12T09:59:14.279Z,4.58
2019-01-12T10:02:17.327Z,4.17
2019-01-12T10:05:20.620Z,3.75
2019-01-12T10:08:24.170Z,3.75
2019-01-12T10:11:28.236Z,3.90
2019-01-12T10:14:31.270Z,4.20
2019-01-12T10:17:34.314Z,3.33
2019-01-12T10:20:37.351Z,3.65
2019-01-12T10:23:40.139Z,4.10
2019-01-12T10:26:43.178Z,3.52
2019-01-12T10:29:46.473Z,3.62
2019-01-12T10:32:49.511Z,2.67
2019-01-12T10:35:55.882Z,3.72
2019-01-12T10:38:59.179Z,2.95
2019-01-12T10:42:01.960Z,3.15
2019-01-12T10:45:05.255Z,3.45
2019-01-12T10:48:08.296Z,3.33
2019-01-12T10:51:11.593Z,2.52
2019-01-12T10:54:15.145Z,3.25
2019-01-12T10:57:19.462Z,2.85
2019-01-12T11:00:22.250Z,3.08
2019-01-12T11:03:25.543Z,3.25
2019-01-12T11:06:28.839Z,3.65
2019-01-12T11:09:32.134Z,3.30
2019-01-12T11:12:35.688Z,3.05
2019-01-12T11:15:38.481Z,2.87
2019-01-12T11:18:41.510Z,3.67
2019-01-12T11:21:44.295Z,3.75
2019-01-12T11:24:47.591Z,3.27
2019-01-12T11:27:50.633Z,3.33
2019-01-12T11:30:53.678Z,3.37
2019-01-12T11:33:57.478Z,3.10
2019-01-12T11:37:00.291Z,3.90
2019-01-12T11:40:04.071Z,3.20
2019-01-12T11:43:07.113Z,3.65
2019-01-12T11:46:10.412Z,2.72
2019-01-12T11:49:13.446Z,3.95
2019-01-12T11:52:16.745Z,2.58
2019-01-12T11:55:19.786Z,2.87
2019-01-12T11:58:22.829Z,2.35
2019-01-12T12:01:26.630Z,3.35
2019-01-12T12:04:30.956Z,2.83
2019-01-12T12:07:33.992Z,3.30
2019-01-12T12:10:40.872Z,2.80
2019-01-12T12:13:44.168Z,2.45
2019-01-12T12:16:47.215Z,2.75
2019-01-12T12:23:05.319Z,2.22
2019-01-12T12:26:08.104Z,3.10
2019-01-12T12:29:11.144Z,2.10
2019-01-12T12:32:10.610Z,2.47
2019-01-12T12:35:13.896Z,2.42
2019-01-12T12:38:16.936Z,3.00
2019-01-12T12:41:19.975Z,3.22
2019-01-12T12:44:23.273Z,3.05
2019-01-12T12:47:27.337Z,2.52
2019-01-12T12:50:30.375Z,2.90
2019-01-12T12:53:27.910Z,2.60
2019-01-12T12:56:32.359Z,2.12
2019-01-12T12:59:35.656Z,2.85
2019-01-12T13:02:38.695Z,2.90
2019-01-12T13:05:41.478Z,3.33
2019-01-12T13:08:48.458Z,2.60
2019-01-12T13:11:47.307Z,3.80
2019-01-12T13:14:50.346Z,2.37
2019-01-12T13:17:53.385Z,3.25
2019-01-12T13:20:56.168Z,2.50
2019-01-12T13:23:59.229Z,3.62
2019-01-12T13:27:01.992Z,2.55
2019-01-12T13:30:05.038Z,2.70
2019-01-12T13:33:07.820Z,3.05
2019-01-12T13:36:10.866Z,2.70
2019-01-12T13:39:10.571Z,2.70
2019-01-12T13:42:13.616Z,2.40
2019-01-12T13:45:13.461Z,2.60
2019-01-12T13:48:16.365Z,2.00
2019-01-12T13:51:22.120Z,2.87
2019-01-12T13:54:25.900Z,2.45
2019-01-12T13:57:29.633Z,2.62
2019-01-12T14:00:33.897Z,2.30
2019-01-12T14:03:37.450Z,3.15
2019-01-12T14:06:40.232Z,2.92
2019-01-12T14:09:45.064Z,3.08
2019-01-12T14:12:48.360Z,2.60
2019-01-12T14:15:53.474Z,2.72
2019-01-12T14:18:57.290Z,2.30
2019-01-12T14:22:02.604Z,2.95
2019-01-12T14:25:05.904Z,2.35
2019-01-12T14:28:09.967Z,3.08
2019-01-12T14:31:13.272Z,2.85
2019-01-12T14:34:17.073Z,3.30
2019-01-12T14:37:20.114Z,2.92
2019-01-12T14:40:23.156Z,3.55
2019-01-12T14:43:27.750Z,3.22
2019-01-12T14:46:32.056Z,2.80
2019-01-12T14:49:34.825Z,2.12
2019-01-12T14:52:38.888Z,2.80
2019-01-12T14:55:42.183Z,2.60
2019-01-12T14:58:44.980Z,3.10
2019-01-12T15:01:50.831Z,2.75
2019-01-12T15:04:53.357Z,2.15
2019-01-12T15:07:57.417Z,2.17
2019-01-12T15:11:00.199Z,2.27
2019-01-12T15:14:03.495Z,2.95
2019-01-12T15:17:06.035Z,2.55
2019-01-12T15:20:10.601Z,2.05
2019-01-12T15:23:16.202Z,2.05
2019-01-12T15:26:19.495Z,2.50
2019-01-12T15:29:22.552Z,2.35
2019-01-12T15:32:25.321Z,2.22
2019-01-12T15:35:28.104Z,2.20
2019-01-12T15:38:32.424Z,2.92
2019-01-12T15:41:35.465Z,2.08
2019-01-12T15:44:38.760Z,2.27
2019-01-12T15:47:42.825Z,2.35
2019-01-12T15:50:46.119Z,1.67
2019-01-12T15:53:49.985Z,2.00
2019-01-12T15:56:52.967Z,2.27
2019-01-12T15:59:57.030Z,1.98
2019-01-12T16:03:01.607Z,2.90
2019-01-12T16:06:04.650Z,2.35
2019-01-12T16:09:07.943Z,2.80
2019-01-12T16:12:10.989Z,2.60
2019-01-12T16:15:17.098Z,2.50
2019-01-12T16:19:29.064Z,2.80
2019-01-12T16:22:32.553Z,3.12
2019-01-12T16:25:36.452Z,1.77
2019-01-12T16:28:39.657Z,2.90
2019-01-12T16:31:42.956Z,2.70
2019-01-12T16:34:46.502Z,3.27
2019-01-12T16:37:50.069Z,3.70
2019-01-12T16:40:53.613Z,3.52
2019-01-12T16:43:56.649Z,3.67
2019-01-12T16:47:00.207Z,3.98
2019-01-12T16:50:03.243Z,2.92
2019-01-12T16:53:06.286Z,3.10
2019-01-12T16:56:09.321Z,5.25
2019-01-12T16:59:13.382Z,3.70
2019-01-12T17:02:16.169Z,4.03
2019-01-12T17:05:19.976Z,3.25
2019-01-12T17:08:23.273Z,4.47
2019-01-12T17:11:26.571Z,4.37
2019-01-12T17:14:29.357Z,3.75
2019-01-12T17:17:28.562Z,3.60
2019-01-12T17:20:31.847Z,3.50
2019-01-12T17:23:29.160Z,3.83
2019-01-12T17:26:32.296Z,3.22
2019-01-12T17:29:37.126Z,4.28
2019-01-12T17:32:40.942Z,6.97
2019-01-12T17:35:43.980Z,4.20
2019-01-12T17:38:47.015Z,4.15
2019-01-12T17:41:50.314Z,4.33
2019-01-12T17:44:53.864Z,3.70
2019-01-12T17:47:57.159Z,3.58
2019-01-12T17:51:00.972Z,6.37
2019-01-12T17:54:04.266Z,6.70
2019-01-12T17:57:07.566Z,4.33
2019-01-12T18:00:11.628Z,6.72
2019-01-12T18:03:14.920Z,5.35
2019-01-12T18:06:18.981Z,3.52
2019-01-12T18:09:22.024Z,9.15
2019-01-12T18:12:25.065Z,6.00
2019-01-12T18:15:28.104Z,6.67
2019-01-12T18:18:31.145Z,6.20
2019-01-12T18:21:34.185Z,4.28
2019-01-12T18:24:27.247Z,5.33
2019-01-12T18:27:20.808Z,5.87
2019-01-12T18:30:13.863Z,5.55
2019-01-12T18:33:06.919Z,3.27
2019-01-12T18:35:59.789Z,3.20
2019-01-12T18:38:53.047Z,4.80
2019-01-12T18:41:46.344Z,4.03
2019-01-12T18:44:40.424Z,4.65
2019-01-12T18:47:34.762Z,4.33
2019-01-12T18:50:28.078Z,3.40
2019-01-12T18:53:20.875Z,4.00
2019-01-12T18:56:13.926Z,3.58
2019-01-12T18:59:06.984Z,4.12
2019-01-12T19:02:00.041Z,4.35
2019-01-12T19:07:58.697Z,4.72
2019-01-12T19:10:47.663Z,3.50
2019-01-12T19:13:41.223Z,3.70
2019-01-12T19:16:30.184Z,3.15
2019-01-12T19:19:23.760Z,3.00
2019-01-12T19:22:17.319Z,2.98
2019-01-12T19:25:10.123Z,2.85
2019-01-12T19:28:03.945Z,2.17
2019-01-12T19:30:57.010Z,2.75
2019-01-12T19:33:49.800Z,2.25
2019-01-12T19:36:42.867Z,2.20
2019-01-12T19:39:40.008Z,2.60
2019-01-12T19:42:33.322Z,2.50
2019-01-12T19:45:48.698Z,4.00
2019-01-12T19:48:49.751Z,4.72
2019-01-12T19:51:46.023Z,4.37
2019-01-12T19:54:39.084Z,3.33
2019-01-12T19:57:32.135Z,4.75
2019-01-12T20:00:26.214Z,3.80
2019-01-12T20:03:20.552Z,3.47
2019-01-12T20:06:17.169Z,3.62
2019-01-12T20:09:06.410Z,3.17
2019-01-12T20:11:55.636Z,2.87
2019-01-12T20:14:48.686Z,2.12
2019-01-12T20:17:42.255Z,2.70
2019-01-12T20:20:35.822Z,2.58
2019-01-12T20:23:28.621Z,14.95
2019-01-12T20:26:21.671Z,2.10
2019-01-12T20:29:20.843Z,2.10
2019-01-12T20:32:27.755Z,2.37
2019-01-12T20:35:45.127Z,2.10
2019-01-12T20:38:49.452Z,1.87
2019-01-12T20:41:47.114Z,2.17
2019-01-12T20:45:09.612Z,2.30
2019-01-12T20:48:25.974Z,1.95
2019-01-12T20:51:31.308Z,1.95
2019-01-12T20:54:42.297Z,2.05
2019-01-12T20:57:48.139Z,1.60
2019-01-12T21:00:52.200Z,1.82
2019-01-12T21:04:12.143Z,1.77
2019-01-12T21:07:16.973Z,2.12
2019-01-12T21:10:21.295Z,2.20
2019-01-12T21:13:24.330Z,1.77
2019-01-12T21:16:23.793Z,1.85
2019-01-12T21:19:17.898Z,1.70
2019-01-12T21:22:22.449Z,2.25
2019-01-12T21:25:15.497Z,1.70
2019-01-12T21:28:09.690Z,1.72
2019-01-12T21:31:04.939Z,1.62
2019-01-12T21:33:59.790Z,2.08
2019-01-12T21:36:53.096Z,1.70
2019-01-12T21:39:46.661Z,1.75
2019-01-12T21:42:40.487Z,1.82
2019-01-12T21:45:34.644Z,1.70
2019-01-12T21:48:27.894Z,1.75
2019-01-12T21:51:20.679Z,1.77
2019-01-12T21:54:14.247Z,1.70
2019-01-12T21:57:15.494Z,1.60
2019-01-12T22:00:08.553Z,1.55
2019-01-12T22:02:57.770Z,1.60
2019-01-12T22:05:52.105Z,1.47
2019-01-12T22:08:46.446Z,2.20
2019-01-12T22:11:39.242Z,1.25
2019-01-12T22:14:34.092Z,2.27
2019-01-12T22:17:23.367Z,1.62
2019-01-12T22:20:16.621Z,1.60
2019-01-12T22:23:05.834Z,1.75
2019-01-12T22:25:58.889Z,1.50
2019-01-12T22:28:53.223Z,1.62
2019-01-12T22:31:47.814Z,1.40
2019-01-12T22:34:40.871Z,1.55
2019-01-12T22:37:33.684Z,1.20
2019-01-12T22:40:20.206Z,1.80
2019-01-12T22:43:13.127Z,2.40
2019-01-12T22:46:06.183Z,2.10
2019-01-12T22:48:59.502Z,1.80
2019-01-12T22:51:52.299Z,2.15
2019-01-12T22:54:45.359Z,1.80
2019-01-12T22:57:34.829Z,2.02
2019-01-12T23:00:35.308Z,2.20
2019-01-12T23:03:24.783Z,1.55
2019-01-12T23:06:19.118Z,1.72
2019-01-12T23:09:11.919Z,2.37
2019-01-12T23:12:05.233Z,2.12
2019-01-12T23:14:58.031Z,2.05
2019-01-12T23:17:51.338Z,2.40
2019-01-12T23:20:44.398Z,2.52
2019-01-12T23:23:37.964Z,2.22
2019-01-12T23:26:31.015Z,1.82
2019-01-12T23:29:23.824Z,2.42
2019-01-12T23:32:26.862Z,2.00
2019-01-12T23:35:19.912Z,1.75
2019-01-12T23:38:12.715Z,2.60
2019-01-12T23:41:05.775Z,2.17
2019-01-12T23:43:58.829Z,2.40
2019-01-12T23:46:52.646Z,2.00
2019-01-12T23:49:47.238Z,1.80
2019-01-12T23:52:41.318Z,2.60
2019-01-12T23:55:30.870Z,1.82
2019-01-12T23:58:23.596Z,1.65
